sensor_id;sensor_type;location;lat;lon;timestamp;P1;durP1;ratioP1;P2;durP2;ratioP2
71095;SDS011;58753;49.440;11.126;2024-03-29T00:01:57;2.20;;;0.70;;
71095;SDS011;58753;49.440;11.126;2024-03-29T00:04:22;3.35;;;1.05;;
71095;SDS011;58753;49.440;11.126;2024-03-29T00:06:48;2.00;;;0.80;;
71095;SDS011;58753;49.440;11.126;2024-03-29T00:09:13;3.17;;;1.17;;
71095;SDS011;58753;49.440;11.126;2024-03-29T00:11:38;2.70;;;1.00;;
71095;SDS011;58753;49.440;11.126;2024-03-29T00:14:04;2.73;;;0.90;;
71095;SDS011;58753;49.440;11.126;2024-03-29T00:16:29;1.95;;;0.93;;
71095;SDS011;58753;49.440;11.126;2024-03-29T00:18:55;2.27;;;0.80;;
71095;SDS011;58753;49.440;11.126;2024-03-29T00:21:20;2.13;;;0.60;;
71095;SDS011;58753;49.440;11.126;2024-03-29T00:23:45;2.90;;;0.70;;
71095;SDS011;58753;49.440;11.126;2024-03-29T00:26:12;2.17;;;0.88;;
71095;SDS011;58753;49.440;11.126;2024-03-29T00:28:37;2.87;;;1.03;;
71095;SDS011;58753;49.440;11.126;2024-03-29T00:31:03;2.42;;;0.77;;
71095;SDS011;58753;49.440;11.126;2024-03-29T00:33:29;2.55;;;1.02;;
71095;SDS011;58753;49.440;11.126;2024-03-29T00:35:55;3.67;;;1.10;;
71095;SDS011;58753;49.440;11.126;2024-03-29T00:38:20;4.40;;;0.70;;
71095;SDS011;58753;49.440;11.126;2024-03-29T00:40:46;2.83;;;0.80;;
71095;SDS011;58753;49.440;11.126;2024-03-29T00:43:11;3.35;;;0.65;;
71095;SDS011;58753;49.440;11.126;2024-03-29T00:45:37;3.27;;;0.80;;
71095;SDS011;58753;49.440;11.126;2024-03-29T00:48:02;1.60;;;0.67;;
71095;SDS011;58753;49.440;11.126;2024-03-29T00:50:28;2.63;;;0.90;;
71095;SDS011;58753;49.440;11.126;2024-03-29T00:52:53;2.23;;;0.80;;
71095;SDS011;58753;49.440;11.126;2024-03-29T00:55:19;1.70;;;0.70;;
71095;SDS011;58753;49.440;11.126;2024-03-29T00:57:44;1.73;;;0.30;;
71095;SDS011;58753;49.440;11.126;2024-03-29T01:00:10;2.60;;;0.65;;
71095;SDS011;58753;49.440;11.126;2024-03-29T01:02:35;1.57;;;0.50;;
71095;SDS011;58753;49.440;11.126;2024-03-29T01:05:01;1.73;;;0.73;;
71095;SDS011;58753;49.440;11.126;2024-03-29T01:07:28;2.28;;;0.50;;
71095;SDS011;58753;49.440;11.126;2024-03-29T01:09:53;1.60;;;0.40;;
71095;SDS011;58753;49.440;11.126;2024-03-29T01:12:18;2.30;;;0.50;;
71095;SDS011;58753;49.440;11.126;2024-03-29T01:14:44;2.33;;;0.55;;
71095;SDS011;58753;49.440;11.126;2024-03-29T01:17:10;2.47;;;0.83;;
71095;SDS011;58753;49.440;11.126;2024-03-29T01:19:36;0.80;;;0.40;;
71095;SDS011;58753;49.440;11.126;2024-03-29T01:22:01;1.87;;;0.57;;
71095;SDS011;58753;49.440;11.126;2024-03-29T01:24:27;2.03;;;0.45;;
71095;SDS011;58753;49.440;11.126;2024-03-29T01:26:52;2.37;;;0.60;;
71095;SDS011;58753;49.440;11.126;2024-03-29T01:29:18;2.75;;;0.75;;
71095;SDS011;58753;49.440;11.126;2024-03-29T01:31:44;2.33;;;0.80;;
71095;SDS011;58753;49.440;11.126;2024-03-29T01:34:09;3.30;;;0.63;;
71095;SDS011;58753;49.440;11.126;2024-03-29T01:36:35;1.53;;;0.60;;
71095;SDS011;58753;49.440;11.126;2024-03-29T01:39:00;2.25;;;0.60;;
71095;SDS011;58753;49.440;11.126;2024-03-29T01:41:26;1.43;;;0.40;;
71095;SDS011;58753;49.440;11.126;2024-03-29T01:43:52;1.70;;;0.50;;
71095;SDS011;58753;49.440;11.126;2024-03-29T01:46:19;4.15;;;0.50;;
71095;SDS011;58753;49.440;11.126;2024-03-29T01:48:46;1.10;;;0.30;;
71095;SDS011;58753;49.440;11.126;2024-03-29T01:51:11;1.52;;;0.60;;
71095;SDS011;58753;49.440;11.126;2024-03-29T01:53:40;1.50;;;0.43;;
71095;SDS011;58753;49.440;11.126;2024-03-29T01:56:05;1.30;;;0.43;;
71095;SDS011;58753;49.440;11.126;2024-03-29T01:58:32;1.48;;;0.38;;
71095;SDS011;58753;49.440;11.126;2024-03-29T02:00:58;2.63;;;0.40;;
71095;SDS011;58753;49.440;11.126;2024-03-29T02:03:25;1.10;;;0.40;;
71095;SDS011;58753;49.440;11.126;2024-03-29T02:05:50;1.67;;;0.60;;
71095;SDS011;58753;49.440;11.126;2024-03-29T02:08:17;1.27;;;0.45;;
71095;SDS011;58753;49.440;11.126;2024-03-29T02:10:43;2.03;;;0.60;;
71095;SDS011;58753;49.440;11.126;2024-03-29T02:13:10;1.30;;;0.35;;
71095;SDS011;58753;49.440;11.126;2024-03-29T02:15:36;2.00;;;0.47;;
71095;SDS011;58753;49.440;11.126;2024-03-29T02:18:01;1.07;;;0.40;;
71095;SDS011;58753;49.440;11.126;2024-03-29T02:20:27;1.63;;;0.43;;
71095;SDS011;58753;49.440;11.126;2024-03-29T02:22:54;1.42;;;0.40;;
71095;SDS011;58753;49.440;11.126;2024-03-29T02:25:23;2.83;;;0.40;;
71095;SDS011;58753;49.440;11.126;2024-03-29T02:27:49;1.70;;;0.38;;
71095;SDS011;58753;49.440;11.126;2024-03-29T02:30:17;1.60;;;0.50;;
71095;SDS011;58753;49.440;11.126;2024-03-29T02:32:43;1.33;;;0.50;;
71095;SDS011;58753;49.440;11.126;2024-03-29T02:35:08;1.13;;;0.40;;
71095;SDS011;58753;49.440;11.126;2024-03-29T02:37:35;1.80;;;0.50;;
71095;SDS011;58753;49.440;11.126;2024-03-29T02:40:01;1.60;;;0.20;;
71095;SDS011;58753;49.440;11.126;2024-03-29T02:42:27;1.30;;;0.40;;
71095;SDS011;58753;49.440;11.126;2024-03-29T02:44:52;0.75;;;0.25;;
71095;SDS011;58753;49.440;11.126;2024-03-29T02:47:17;0.57;;;0.20;;
71095;SDS011;58753;49.440;11.126;2024-03-29T02:49:43;3.80;;;0.60;;
71095;SDS011;58753;49.440;11.126;2024-03-29T02:52:08;1.97;;;0.30;;
71095;SDS011;58753;49.440;11.126;2024-03-29T02:54:33;2.50;;;0.20;;
71095;SDS011;58753;49.440;11.126;2024-03-29T02:56:59;1.05;;;0.28;;
71095;SDS011;58753;49.440;11.126;2024-03-29T02:59:24;1.20;;;0.40;;
71095;SDS011;58753;49.440;11.126;2024-03-29T03:01:50;2.30;;;0.37;;
71095;SDS011;58753;49.440;11.126;2024-03-29T03:04:15;1.20;;;0.40;;
71095;SDS011;58753;49.440;11.126;2024-03-29T03:06:40;1.48;;;0.20;;
71095;SDS011;58753;49.440;11.126;2024-03-29T03:09:06;1.53;;;0.50;;
71095;SDS011;58753;49.440;11.126;2024-03-29T03:11:50;2.67;;;0.47;;
71095;SDS011;58753;49.440;11.126;2024-03-29T03:14:15;0.93;;;0.20;;
71095;SDS011;58753;49.440;11.126;2024-03-29T03:16:41;1.60;;;0.40;;
71095;SDS011;58753;49.440;11.126;2024-03-29T03:19:06;1.67;;;0.30;;
71095;SDS011;58753;49.440;11.126;2024-03-29T03:21:31;1.70;;;0.40;;
71095;SDS011;58753;49.440;11.126;2024-03-29T03:23:57;2.50;;;0.32;;
71095;SDS011;58753;49.440;11.126;2024-03-29T03:26:22;2.40;;;0.30;;
71095;SDS011;58753;49.440;11.126;2024-03-29T03:28:47;2.60;;;0.40;;
71095;SDS011;58753;49.440;11.126;2024-03-29T03:31:13;2.20;;;0.40;;
71095;SDS011;58753;49.440;11.126;2024-03-29T03:33:38;1.73;;;0.22;;
71095;SDS011;58753;49.440;11.126;2024-03-29T03:36:04;1.00;;;0.30;;
71095;SDS011;58753;49.440;11.126;2024-03-29T03:38:30;1.20;;;0.30;;
71095;SDS011;58753;49.440;11.126;2024-03-29T03:40:56;1.47;;;0.43;;
71095;SDS011;58753;49.440;11.126;2024-03-29T03:43:21;1.30;;;0.30;;
71095;SDS011;58753;49.440;11.126;2024-03-29T03:45:47;3.33;;;0.40;;
71095;SDS011;58753;49.440;11.126;2024-03-29T03:48:13;0.87;;;0.33;;
71095;SDS011;58753;49.440;11.126;2024-03-29T03:50:38;0.90;;;0.30;;
71095;SDS011;58753;49.440;11.126;2024-03-29T03:53:04;0.83;;;0.10;;
71095;SDS011;58753;49.440;11.126;2024-03-29T03:55:29;1.23;;;0.20;;
71095;SDS011;58753;49.440;11.126;2024-03-29T03:57:55;1.60;;;0.50;;
71095;SDS011;58753;49.440;11.126;2024-03-29T04:00:21;1.50;;;0.40;;
71095;SDS011;58753;49.440;11.126;2024-03-29T04:02:48;1.30;;;0.20;;
71095;SDS011;58753;49.440;11.126;2024-03-29T04:05:14;0.88;;;0.28;;
71095;SDS011;58753;49.440;11.126;2024-03-29T04:07:40;1.48;;;0.45;;
71095;SDS011;58753;49.440;11.126;2024-03-29T04:10:05;0.97;;;0.20;;
71095;SDS011;58753;49.440;11.126;2024-03-29T04:12:31;2.05;;;0.57;;
71095;SDS011;58753;49.440;11.126;2024-03-29T04:14:56;1.27;;;0.43;;
71095;SDS011;58753;49.440;11.126;2024-03-29T04:17:25;1.13;;;0.33;;
71095;SDS011;58753;49.440;11.126;2024-03-29T04:19:50;2.58;;;0.32;;
71095;SDS011;58753;49.440;11.126;2024-03-29T04:22:16;2.77;;;0.40;;
71095;SDS011;58753;49.440;11.126;2024-03-29T04:24:41;1.27;;;0.43;;
71095;SDS011;58753;49.440;11.126;2024-03-29T04:27:06;2.17;;;0.30;;
71095;SDS011;58753;49.440;11.126;2024-03-29T04:29:32;0.50;;;0.20;;
71095;SDS011;58753;49.440;11.126;2024-03-29T04:31:57;0.93;;;0.23;;
71095;SDS011;58753;49.440;11.126;2024-03-29T04:34:23;0.70;;;0.30;;
71095;SDS011;58753;49.440;11.126;2024-03-29T04:36:48;0.90;;;0.30;;
71095;SDS011;58753;49.440;11.126;2024-03-29T04:39:13;0.70;;;0.30;;
71095;SDS011;58753;49.440;11.126;2024-03-29T04:41:39;1.07;;;0.30;;
71095;SDS011;58753;49.440;11.126;2024-03-29T04:44:04;0.60;;;0.20;;
71095;SDS011;58753;49.440;11.126;2024-03-29T04:46:30;1.00;;;0.30;;
71095;SDS011;58753;49.440;11.126;2024-03-29T04:48:56;1.67;;;0.30;;
71095;SDS011;58753;49.440;11.126;2024-03-29T04:51:22;0.82;;;0.20;;
71095;SDS011;58753;49.440;11.126;2024-03-29T04:53:47;0.95;;;0.20;;
71095;SDS011;58753;49.440;11.126;2024-03-29T04:56:13;0.87;;;0.13;;
71095;SDS011;58753;49.440;11.126;2024-03-29T04:58:38;0.87;;;0.30;;
71095;SDS011;58753;49.440;11.126;2024-03-29T05:01:04;0.60;;;0.20;;
71095;SDS011;58753;49.440;11.126;2024-03-29T05:03:29;0.95;;;0.20;;
71095;SDS011;58753;49.440;11.126;2024-03-29T05:05:56;0.83;;;0.30;;
71095;SDS011;58753;49.440;11.126;2024-03-29T05:08:21;1.40;;;0.20;;
71095;SDS011;58753;49.440;11.126;2024-03-29T05:10:50;0.75;;;0.20;;
71095;SDS011;58753;49.440;11.126;2024-03-29T05:13:16;0.50;;;0.20;;
71095;SDS011;58753;49.440;11.126;2024-03-29T05:15:42;1.15;;;0.30;;
71095;SDS011;58753;49.440;11.126;2024-03-29T05:18:08;2.55;;;0.22;;
71095;SDS011;58753;49.440;11.126;2024-03-29T05:20:34;1.57;;;0.30;;
71095;SDS011;58753;49.440;11.126;2024-03-29T05:22:59;1.53;;;0.40;;
71095;SDS011;58753;49.440;11.126;2024-03-29T05:25:25;0.88;;;0.25;;
71095;SDS011;58753;49.440;11.126;2024-03-29T05:27:51;0.77;;;0.20;;
71095;SDS011;58753;49.440;11.126;2024-03-29T05:30:17;1.45;;;0.30;;
71095;SDS011;58753;49.440;11.126;2024-03-29T05:32:42;1.00;;;0.40;;
71095;SDS011;58753;49.440;11.126;2024-03-29T05:35:09;2.22;;;0.50;;
71095;SDS011;58753;49.440;11.126;2024-03-29T05:37:35;1.27;;;0.20;;
71095;SDS011;58753;49.440;11.126;2024-03-29T05:40:01;1.80;;;0.40;;
71095;SDS011;58753;49.440;11.126;2024-03-29T05:42:29;1.20;;;0.32;;
71095;SDS011;58753;49.440;11.126;2024-03-29T05:44:57;0.95;;;0.25;;
71095;SDS011;58753;49.440;11.126;2024-03-29T05:47:22;0.87;;;0.23;;
71095;SDS011;58753;49.440;11.126;2024-03-29T05:49:48;2.70;;;0.40;;
71095;SDS011;58753;49.440;11.126;2024-03-29T05:52:14;1.10;;;0.37;;
71095;SDS011;58753;49.440;11.126;2024-03-29T05:54:40;2.10;;;0.50;;
71095;SDS011;58753;49.440;11.126;2024-03-29T05:57:06;1.70;;;0.35;;
71095;SDS011;58753;49.440;11.126;2024-03-29T05:59:34;1.48;;;0.32;;
71095;SDS011;58753;49.440;11.126;2024-03-29T06:02:00;1.33;;;0.40;;
71095;SDS011;58753;49.440;11.126;2024-03-29T06:04:26;0.82;;;0.30;;
71095;SDS011;58753;49.440;11.126;2024-03-29T06:07:00;1.08;;;0.30;;
71095;SDS011;58753;49.440;11.126;2024-03-29T06:09:29;0.90;;;0.30;;
71095;SDS011;58753;49.440;11.126;2024-03-29T06:11:55;0.80;;;0.40;;
71095;SDS011;58753;49.440;11.126;2024-03-29T06:14:22;0.60;;;0.20;;
71095;SDS011;58753;49.440;11.126;2024-03-29T06:17:06;3.05;;;0.38;;
71095;SDS011;58753;49.440;11.126;2024-03-29T06:19:47;1.27;;;0.28;;
71095;SDS011;58753;49.440;11.126;2024-03-29T06:22:13;0.80;;;0.20;;
71095;SDS011;58753;49.440;11.126;2024-03-29T06:24:39;2.60;;;0.35;;
71095;SDS011;58753;49.440;11.126;2024-03-29T06:27:05;0.50;;;0.20;;
71095;SDS011;58753;49.440;11.126;2024-03-29T06:29:30;1.70;;;0.37;;
71095;SDS011;58753;49.440;11.126;2024-03-29T06:31:56;0.90;;;0.20;;
71095;SDS011;58753;49.440;11.126;2024-03-29T06:34:22;1.30;;;0.30;;
71095;SDS011;58753;49.440;11.126;2024-03-29T06:36:47;1.10;;;0.30;;
71095;SDS011;58753;49.440;11.126;2024-03-29T06:39:12;0.97;;;0.30;;
71095;SDS011;58753;49.440;11.126;2024-03-29T06:41:38;0.90;;;0.30;;
71095;SDS011;58753;49.440;11.126;2024-03-29T06:44:03;0.70;;;0.20;;
71095;SDS011;58753;49.440;11.126;2024-03-29T06:46:29;0.77;;;0.27;;
71095;SDS011;58753;49.440;11.126;2024-03-29T06:48:54;0.57;;;0.20;;
71095;SDS011;58753;49.440;11.126;2024-03-29T06:51:20;0.75;;;0.10;;
71095;SDS011;58753;49.440;11.126;2024-03-29T06:53:45;0.50;;;0.20;;
71095;SDS011;58753;49.440;11.126;2024-03-29T06:56:10;1.30;;;0.20;;
71095;SDS011;58753;49.440;11.126;2024-03-29T06:58:36;0.90;;;0.10;;
71095;SDS011;58753;49.440;11.126;2024-03-29T07:01:01;1.10;;;0.17;;
71095;SDS011;58753;49.440;11.126;2024-03-29T07:03:27;0.93;;;0.20;;
71095;SDS011;58753;49.440;11.126;2024-03-29T07:05:52;3.27;;;0.20;;
71095;SDS011;58753;49.440;11.126;2024-03-29T07:08:17;1.87;;;0.30;;
71095;SDS011;58753;49.440;11.126;2024-03-29T07:10:43;2.20;;;0.32;;
71095;SDS011;58753;49.440;11.126;2024-03-29T07:13:08;0.70;;;0.20;;
71095;SDS011;58753;49.440;11.126;2024-03-29T07:15:34;1.38;;;0.20;;
71095;SDS011;58753;49.440;11.126;2024-03-29T07:18:00;2.40;;;0.47;;
71095;SDS011;58753;49.440;11.126;2024-03-29T07:20:28;1.35;;;0.30;;
71095;SDS011;58753;49.440;11.126;2024-03-29T07:22:53;2.08;;;0.30;;
71095;SDS011;58753;49.440;11.126;2024-03-29T07:25:19;0.90;;;0.30;;
71095;SDS011;58753;49.440;11.126;2024-03-29T07:27:44;2.23;;;0.30;;
71095;SDS011;58753;49.440;11.126;2024-03-29T07:30:10;1.05;;;0.20;;
71095;SDS011;58753;49.440;11.126;2024-03-29T07:32:36;0.98;;;0.30;;
71095;SDS011;58753;49.440;11.126;2024-03-29T07:35:02;1.00;;;0.10;;
71095;SDS011;58753;49.440;11.126;2024-03-29T07:37:28;1.27;;;0.22;;
71095;SDS011;58753;49.440;11.126;2024-03-29T07:39:54;1.55;;;0.20;;
71095;SDS011;58753;49.440;11.126;2024-03-29T07:42:20;3.63;;;0.40;;
71095;SDS011;58753;49.440;11.126;2024-03-29T07:44:45;1.63;;;0.20;;
71095;SDS011;58753;49.440;11.126;2024-03-29T07:47:11;1.52;;;0.20;;
71095;SDS011;58753;49.440;11.126;2024-03-29T07:49:39;0.90;;;0.20;;
71095;SDS011;58753;49.440;11.126;2024-03-29T07:52:05;0.90;;;0.30;;
71095;SDS011;58753;49.440;11.126;2024-03-29T07:54:32;2.55;;;0.20;;
71095;SDS011;58753;49.440;11.126;2024-03-29T07:56:57;0.57;;;0.20;;
71095;SDS011;58753;49.440;11.126;2024-03-29T07:59:23;0.80;;;0.30;;
71095;SDS011;58753;49.440;11.126;2024-03-29T08:01:48;0.43;;;0.10;;
71095;SDS011;58753;49.440;11.126;2024-03-29T08:04:14;1.05;;;0.30;;
71095;SDS011;58753;49.440;11.126;2024-03-29T08:06:39;2.23;;;0.20;;
71095;SDS011;58753;49.440;11.126;2024-03-29T08:09:04;1.07;;;0.20;;
71095;SDS011;58753;49.440;11.126;2024-03-29T08:11:30;0.52;;;0.17;;
71095;SDS011;58753;49.440;11.126;2024-03-29T08:13:56;0.53;;;0.20;;
71095;SDS011;58753;49.440;11.126;2024-03-29T08:16:21;0.73;;;0.23;;
71095;SDS011;58753;49.440;11.126;2024-03-29T08:18:47;1.23;;;0.10;;
71095;SDS011;58753;49.440;11.126;2024-03-29T08:21:13;0.40;;;0.17;;
71095;SDS011;58753;49.440;11.126;2024-03-29T08:23:41;0.80;;;0.20;;
71095;SDS011;58753;49.440;11.126;2024-03-29T08:26:11;1.35;;;0.40;;
71095;SDS011;58753;49.440;11.126;2024-03-29T08:28:37;0.93;;;0.30;;
71095;SDS011;58753;49.440;11.126;2024-03-29T08:31:06;0.60;;;0.20;;
71095;SDS011;58753;49.440;11.126;2024-03-29T08:33:35;0.43;;;0.20;;
71095;SDS011;58753;49.440;11.126;2024-03-29T08:36:06;0.50;;;0.10;;
71095;SDS011;58753;49.440;11.126;2024-03-29T08:38:33;0.90;;;0.30;;
71095;SDS011;58753;49.440;11.126;2024-03-29T08:41:00;0.63;;;0.10;;
71095;SDS011;58753;49.440;11.126;2024-03-29T08:43:25;1.10;;;0.20;;
71095;SDS011;58753;49.440;11.126;2024-03-29T08:45:51;0.90;;;0.20;;
71095;SDS011;58753;49.440;11.126;2024-03-29T08:48:17;0.60;;;0.20;;
71095;SDS011;58753;49.440;11.126;2024-03-29T08:50:42;0.70;;;0.20;;
71095;SDS011;58753;49.440;11.126;2024-03-29T08:53:08;0.97;;;0.20;;
71095;SDS011;58753;49.440;11.126;2024-03-29T08:55:33;0.60;;;0.20;;
71095;SDS011;58753;49.440;11.126;2024-03-29T08:58:00;0.60;;;0.20;;
71095;SDS011;58753;49.440;11.126;2024-03-29T09:00:26;1.33;;;0.27;;
71095;SDS011;58753;49.440;11.126;2024-03-29T09:02:52;0.60;;;0.20;;
71095;SDS011;58753;49.440;11.126;2024-03-29T09:05:18;0.88;;;0.10;;
71095;SDS011;58753;49.440;11.126;2024-03-29T09:07:43;1.13;;;0.17;;
71095;SDS011;58753;49.440;11.126;2024-03-29T09:10:09;1.50;;;0.27;;
71095;SDS011;58753;49.440;11.126;2024-03-29T09:12:34;0.53;;;0.20;;
71095;SDS011;58753;49.440;11.126;2024-03-29T09:15:00;1.00;;;0.32;;
71095;SDS011;58753;49.440;11.126;2024-03-29T09:17:26;0.68;;;0.20;;
71095;SDS011;58753;49.440;11.126;2024-03-29T09:19:51;0.93;;;0.23;;
71095;SDS011;58753;49.440;11.126;2024-03-29T09:22:17;2.35;;;0.20;;
71095;SDS011;58753;49.440;11.126;2024-03-29T09:24:43;1.30;;;0.20;;
71095;SDS011;58753;49.440;11.126;2024-03-29T09:27:08;0.82;;;0.30;;
71095;SDS011;58753;49.440;11.126;2024-03-29T09:29:34;2.97;;;0.47;;
71095;SDS011;58753;49.440;11.126;2024-03-29T09:31:59;1.57;;;0.40;;
71095;SDS011;58753;49.440;11.126;2024-03-29T09:34:27;3.72;;;0.20;;
71095;SDS011;58753;49.440;11.126;2024-03-29T09:36:53;2.72;;;0.30;;
71095;SDS011;58753;49.440;11.126;2024-03-29T09:39:18;0.97;;;0.30;;
71095;SDS011;58753;49.440;11.126;2024-03-29T09:41:46;1.02;;;0.30;;
71095;SDS011;58753;49.440;11.126;2024-03-29T09:44:12;2.07;;;0.50;;
71095;SDS011;58753;49.440;11.126;2024-03-29T09:46:38;1.65;;;0.40;;
71095;SDS011;58753;49.440;11.126;2024-03-29T09:49:08;2.88;;;0.40;;
71095;SDS011;58753;49.440;11.126;2024-03-29T09:51:37;1.10;;;0.28;;
71095;SDS011;58753;49.440;11.126;2024-03-29T09:54:05;0.83;;;0.20;;
71095;SDS011;58753;49.440;11.126;2024-03-29T09:56:33;1.85;;;0.40;;
71095;SDS011;58753;49.440;11.126;2024-03-29T09:58:59;0.80;;;0.22;;
71095;SDS011;58753;49.440;11.126;2024-03-29T10:01:28;1.02;;;0.28;;
71095;SDS011;58753;49.440;11.126;2024-03-29T10:03:57;1.48;;;0.50;;
71095;SDS011;58753;49.440;11.126;2024-03-29T10:06:31;2.47;;;0.37;;
71095;SDS011;58753;49.440;11.126;2024-03-29T10:08:59;1.25;;;0.30;;
71095;SDS011;58753;49.440;11.126;2024-03-29T10:11:25;4.13;;;0.50;;
71095;SDS011;58753;49.440;11.126;2024-03-29T10:13:51;2.58;;;0.55;;
71095;SDS011;58753;49.440;11.126;2024-03-29T10:16:19;2.33;;;0.70;;
71095;SDS011;58753;49.440;11.126;2024-03-29T10:18:52;2.42;;;0.50;;
71095;SDS011;58753;49.440;11.126;2024-03-29T10:21:17;1.98;;;0.68;;
71095;SDS011;58753;49.440;11.126;2024-03-29T10:23:42;1.43;;;0.63;;
71095;SDS011;58753;49.440;11.126;2024-03-29T10:26:08;2.13;;;0.30;;
71095;SDS011;58753;49.440;11.126;2024-03-29T10:28:34;1.20;;;0.37;;
71095;SDS011;58753;49.440;11.126;2024-03-29T10:31:01;2.53;;;0.20;;
71095;SDS011;58753;49.440;11.126;2024-03-29T10:33:33;2.67;;;0.40;;
71095;SDS011;58753;49.440;11.126;2024-03-29T10:35:59;0.98;;;0.40;;
71095;SDS011;58753;49.440;11.126;2024-03-29T10:38:26;1.50;;;0.40;;
71095;SDS011;58753;49.440;11.126;2024-03-29T10:40:54;1.50;;;0.22;;
71095;SDS011;58753;49.440;11.126;2024-03-29T10:43:22;2.85;;;0.32;;
71095;SDS011;58753;49.440;11.126;2024-03-29T10:45:49;2.27;;;0.63;;
71095;SDS011;58753;49.440;11.126;2024-03-29T10:48:23;1.42;;;0.32;;
71095;SDS011;58753;49.440;11.126;2024-03-29T10:50:54;2.08;;;0.40;;
71095;SDS011;58753;49.440;11.126;2024-03-29T10:53:20;2.20;;;0.28;;
71095;SDS011;58753;49.440;11.126;2024-03-29T10:55:50;1.45;;;0.52;;
71095;SDS011;58753;49.440;11.126;2024-03-29T10:58:19;1.00;;;0.20;;
71095;SDS011;58753;49.440;11.126;2024-03-29T11:00:49;2.63;;;0.50;;
71095;SDS011;58753;49.440;11.126;2024-03-29T11:06:04;4.15;;;0.75;;
71095;SDS011;58753;49.440;11.126;2024-03-29T11:08:31;2.85;;;1.00;;
71095;SDS011;58753;49.440;11.126;2024-03-29T11:11:07;1.20;;;0.57;;
71095;SDS011;58753;49.440;11.126;2024-03-29T11:16:30;1.83;;;0.55;;
71095;SDS011;58753;49.440;11.126;2024-03-29T11:18:56;3.30;;;0.38;;
71095;SDS011;58753;49.440;11.126;2024-03-29T11:21:22;1.67;;;0.60;;
71095;SDS011;58753;49.440;11.126;2024-03-29T11:23:53;1.30;;;0.40;;
71095;SDS011;58753;49.440;11.126;2024-03-29T11:26:19;2.22;;;0.50;;
71095;SDS011;58753;49.440;11.126;2024-03-29T11:28:48;2.00;;;0.32;;
71095;SDS011;58753;49.440;11.126;2024-03-29T11:31:21;2.00;;;0.57;;
71095;SDS011;58753;49.440;11.126;2024-03-29T11:33:47;2.07;;;0.60;;
71095;SDS011;58753;49.440;11.126;2024-03-29T11:36:23;1.63;;;0.40;;
71095;SDS011;58753;49.440;11.126;2024-03-29T11:38:53;1.98;;;0.70;;
71095;SDS011;58753;49.440;11.126;2024-03-29T11:41:24;3.38;;;0.90;;
71095;SDS011;58753;49.440;11.126;2024-03-29T11:43:52;3.47;;;1.10;;
71095;SDS011;58753;49.440;11.126;2024-03-29T11:46:21;5.73;;;1.27;;
71095;SDS011;58753;49.440;11.126;2024-03-29T11:48:47;2.88;;;0.85;;
71095;SDS011;58753;49.440;11.126;2024-03-29T11:51:20;4.13;;;1.10;;
71095;SDS011;58753;49.440;11.126;2024-03-29T11:53:49;3.28;;;1.20;;
71095;SDS011;58753;49.440;11.126;2024-03-29T11:56:20;3.17;;;0.73;;
71095;SDS011;58753;49.440;11.126;2024-03-29T11:58:45;2.10;;;0.73;;
71095;SDS011;58753;49.440;11.126;2024-03-29T12:01:13;2.78;;;1.05;;
71095;SDS011;58753;49.440;11.126;2024-03-29T12:03:39;3.75;;;1.08;;
71095;SDS011;58753;49.440;11.126;2024-03-29T12:06:06;2.23;;;0.70;;
71095;SDS011;58753;49.440;11.126;2024-03-29T12:08:33;3.40;;;0.95;;
71095;SDS011;58753;49.440;11.126;2024-03-29T12:11:06;3.95;;;1.30;;
71095;SDS011;58753;49.440;11.126;2024-03-29T12:13:34;4.45;;;1.30;;
71095;SDS011;58753;49.440;11.126;2024-03-29T12:15:59;3.97;;;1.50;;
71095;SDS011;58753;49.440;11.126;2024-03-29T12:18:26;5.20;;;1.33;;
71095;SDS011;58753;49.440;11.126;2024-03-29T12:20:56;3.72;;;1.30;;
71095;SDS011;58753;49.440;11.126;2024-03-29T12:23:22;3.87;;;1.50;;
71095;SDS011;58753;49.440;11.126;2024-03-29T12:25:49;3.88;;;1.10;;
71095;SDS011;58753;49.440;11.126;2024-03-29T12:28:20;3.70;;;1.27;;
71095;SDS011;58753;49.440;11.126;2024-03-29T12:30:47;5.13;;;1.40;;
71095;SDS011;58753;49.440;11.126;2024-03-29T12:33:14;3.42;;;1.25;;
71095;SDS011;58753;49.440;11.126;2024-03-29T12:35:44;1.60;;;0.60;;
71095;SDS011;58753;49.440;11.126;2024-03-29T12:38:14;2.13;;;0.98;;
71095;SDS011;58753;49.440;11.126;2024-03-29T12:40:44;3.40;;;1.20;;
71095;SDS011;58753;49.440;11.126;2024-03-29T12:43:15;2.60;;;0.93;;
71095;SDS011;58753;49.440;11.126;2024-03-29T12:45:49;3.03;;;0.93;;
71095;SDS011;58753;49.440;11.126;2024-03-29T12:48:20;1.92;;;0.93;;
71095;SDS011;58753;49.440;11.126;2024-03-29T12:50:47;2.45;;;0.70;;
71095;SDS011;58753;49.440;11.126;2024-03-29T12:53:14;1.90;;;0.80;;
71095;SDS011;58753;49.440;11.126;2024-03-29T12:55:41;1.92;;;0.73;;
71095;SDS011;58753;49.440;11.126;2024-03-29T12:58:15;2.10;;;0.88;;
71095;SDS011;58753;49.440;11.126;2024-03-29T13:00:49;2.70;;;0.80;;
71095;SDS011;58753;49.440;11.126;2024-03-29T13:03:15;1.98;;;0.80;;
71095;SDS011;58753;49.440;11.126;2024-03-29T13:05:41;2.45;;;0.98;;
71095;SDS011;58753;49.440;11.126;2024-03-29T13:08:10;2.07;;;0.77;;
71095;SDS011;58753;49.440;11.126;2024-03-29T13:10:39;2.45;;;0.70;;
71095;SDS011;58753;49.440;11.126;2024-03-29T13:13:07;1.92;;;0.70;;
71095;SDS011;58753;49.440;11.126;2024-03-29T13:15:37;4.07;;;0.70;;
71095;SDS011;58753;49.440;11.126;2024-03-29T13:18:03;2.10;;;0.82;;
71095;SDS011;58753;49.440;11.126;2024-03-29T13:20:35;3.60;;;0.55;;
71095;SDS011;58753;49.440;11.126;2024-03-29T13:23:05;1.13;;;0.40;;
71095;SDS011;58753;49.440;11.126;2024-03-29T13:25:36;2.30;;;0.90;;
71095;SDS011;58753;49.440;11.126;2024-03-29T13:28:04;1.83;;;0.63;;
71095;SDS011;58753;49.440;11.126;2024-03-29T13:30:35;1.90;;;0.70;;
71095;SDS011;58753;49.440;11.126;2024-03-29T13:33:07;1.98;;;0.50;;
71095;SDS011;58753;49.440;11.126;2024-03-29T13:35:35;1.48;;;0.47;;
71095;SDS011;58753;49.440;11.126;2024-03-29T13:38:01;2.73;;;0.60;;
71095;SDS011;58753;49.440;11.126;2024-03-29T13:40:29;1.30;;;0.60;;
71095;SDS011;58753;49.440;11.126;2024-03-29T13:42:55;2.50;;;0.60;;
71095;SDS011;58753;49.440;11.126;2024-03-29T13:45:21;1.33;;;0.50;;
71095;SDS011;58753;49.440;11.126;2024-03-29T13:47:46;3.47;;;0.80;;
71095;SDS011;58753;49.440;11.126;2024-03-29T13:50:12;1.00;;;0.40;;
71095;SDS011;58753;49.440;11.126;2024-03-29T13:52:40;1.60;;;0.40;;
71095;SDS011;58753;49.440;11.126;2024-03-29T13:55:06;1.50;;;1.10;;
71095;SDS011;58753;49.440;11.126;2024-03-29T13:57:31;1.15;;;0.63;;
71095;SDS011;58753;49.440;11.126;2024-03-29T14:00:02;1.48;;;0.68;;
71095;SDS011;58753;49.440;11.126;2024-03-29T14:02:30;1.30;;;0.63;;
71095;SDS011;58753;49.440;11.126;2024-03-29T14:04:58;1.20;;;0.30;;
71095;SDS011;58753;49.440;11.126;2024-03-29T14:07:26;0.70;;;0.20;;
71095;SDS011;58753;49.440;11.126;2024-03-29T14:09:51;1.77;;;0.60;;
71095;SDS011;58753;49.440;11.126;2024-03-29T14:12:17;1.40;;;0.40;;
71095;SDS011;58753;49.440;11.126;2024-03-29T14:14:46;0.85;;;0.30;;
71095;SDS011;58753;49.440;11.126;2024-03-29T14:17:16;1.13;;;0.40;;
71095;SDS011;58753;49.440;11.126;2024-03-29T14:19:42;0.90;;;0.30;;
71095;SDS011;58753;49.440;11.126;2024-03-29T14:22:10;1.07;;;0.30;;
71095;SDS011;58753;49.440;11.126;2024-03-29T14:24:37;4.15;;;0.43;;
71095;SDS011;58753;49.440;11.126;2024-03-29T14:27:07;1.50;;;0.20;;
71095;SDS011;58753;49.440;11.126;2024-03-29T14:29:32;0.77;;;0.30;;
71095;SDS011;58753;49.440;11.126;2024-03-29T14:32:01;0.82;;;0.30;;
71095;SDS011;58753;49.440;11.126;2024-03-29T14:34:27;1.17;;;0.20;;
71095;SDS011;58753;49.440;11.126;2024-03-29T14:36:59;2.15;;;0.50;;